Time;durP1;ratioP1;P1;durP2;ratioP2;P2;SDS_P1;SDS_P2;PMS_P1;PMS_P2;Temp;Humidity;BMP_temperature;BMP_pressure;BME280_temperature;BME280_humidity;BME280_pressure;Samples;Min_cycle;Max_cycle;Signal;HPM_P1;HPM_P2
2022/09/25 00:00:56;;;;;;;36.72;22.45;;;256.80;2252.80;;;;;;5036073;28;20067;-83
2022/09/25 00:03:25;;;;;;;38.50;27.23;;;256.80;2252.80;;;;;;5035513;28;20029;-82
2022/09/25 00:05:52;;;;;;;44.78;29.73;;;256.80;2252.80;;;;;;5035593;28;20104;-83
2022/09/25 00:08:19;;;;;;;40.63;25.40;;;256.80;2252.80;;;;;;5035970;28;20422;-82
2022/09/25 00:10:48;;;;;;;36.17;23.38;;;281.60;2278.40;;;;;;5035935;28;20033;-82
2022/09/25 00:13:19;;;;;;;37.97;24.85;;;281.80;2278.40;;;;;;5037002;28;20112;-82
2022/09/25 00:15:51;;;;;;;30.52;22.25;;;281.70;2278.40;;;;;;5035877;28;20075;-83
2022/09/25 00:19:48;;;;;;;29.40;19.92;;;256.40;2252.80;;;;;;5036017;28;20025;-83
2022/09/25 00:21:11;;;;;;;33.30;20.13;;;231.30;2252.80;;;;;;5036621;28;20034;-84
2022/09/25 00:23:37;;;;;;;32.42;22.33;;;256.00;2252.80;;;;;;5036594;28;20022;-83
2022/09/25 00:26:07;;;;;;;30.75;21.80;;;231.10;2252.80;;;;;;5047628;28;20040;-80
2022/09/25 00:28:34;;;;;;;35.70;22.88;;;256.00;2252.80;;;;;;5054615;28;20025;-83
2022/09/25 00:31:01;;;;;;;35.97;24.00;;;256.20;2252.80;;;;;;5054984;28;20021;-82
2022/09/25 00:33:27;;;;;;;38.97;25.92;;;256.10;2252.80;;;;;;5043759;28;20029;-83
2022/09/25 00:35:53;;;;;;;37.80;27.02;;;256.20;2252.80;;;;;;5035590;28;20029;-83
2022/09/25 00:38:19;;;;;;;33.85;21.55;;;256.40;2252.80;;;;;;5034558;28;20112;-84
2022/09/25 00:40:44;;;;;;;32.50;21.52;;;256.40;2252.80;;;;;;5035117;28;20533;-84
2022/09/25 00:43:32;;;;;;;30.27;20.17;;;256.20;2252.80;;;;;;5035167;28;20056;-83
2022/09/25 00:45:58;;;;;;;30.58;20.38;;;256.50;2252.80;;;;;;5035565;28;20029;-82
2022/09/25 00:48:24;;;;;;;28.92;19.23;;;231.30;2252.80;;;;;;5035225;28;20053;-86
2022/09/25 00:50:54;;;;;;;29.85;20.70;;;256.00;2252.80;;;;;;5034850;28;20026;-83
2022/09/25 00:53:24;;;;;;;30.20;20.38;;;256.10;2252.80;;;;;;5035632;28;20060;-83
2022/09/25 00:55:50;;;;;;;30.48;18.90;;;256.30;2252.80;;;;;;5044035;28;20013;-83
2022/09/25 00:58:21;;;;;;;30.13;19.58;;;231.30;2252.80;;;;;;5060344;28;20022;-83
2022/09/25 01:00:47;;;;;;;29.77;21.20;;;256.10;2252.80;;;;;;5059730;28;20013;-82
2022/09/25 01:03:15;;;;;;;32.17;19.98;;;256.00;2252.80;;;;;;5043637;28;20038;-83
2022/09/25 01:05:44;;;;;;;27.55;19.13;;;256.10;2252.80;;;;;;5035793;28;20078;-83
2022/09/25 01:08:14;;;;;;;27.55;19.20;;;256.30;2252.80;;;;;;5035484;28;20169;-83
2022/09/25 01:10:41;;;;;;;27.45;18.88;;;256.50;2252.80;;;;;;5035138;28;20459;-81
2022/09/25 01:13:07;;;;;;;33.40;19.67;;;256.50;2252.80;;;;;;5035994;28;20037;-83
2022/09/25 01:15:47;;;;;;;31.30;19.58;;;256.10;2252.80;;;;;;5035841;28;20022;-83
2022/09/25 01:18:42;;;;;;;29.13;18.38;;;256.20;2252.80;;;;;;5035202;28;20403;-82
2022/09/25 01:21:32;;;;;;;27.40;17.77;;;256.20;2252.80;;;;;;5026666;28;20501;-83
2022/09/25 01:24:20;;;;;;;26.48;18.90;;;256.30;2252.80;;;;;;5034711;28;20221;-84
2022/09/25 01:27:05;;;;;;;30.98;20.58;;;231.10;2252.80;;;;;;5034195;28;20060;-84
2022/09/25 01:29:55;;;;;;;35.20;21.83;;;230.90;2252.80;;;;;;5034478;28;20044;-83
2022/09/25 01:32:50;;;;;;;39.45;20.48;;;231.00;2252.80;;;;;;5033803;28;20036;-84
2022/09/25 01:35:38;;;;;;;32.63;19.83;;;230.80;2252.80;;;;;;5034145;28;20449;-85
2022/09/25 01:38:39;;;;;;;37.78;20.13;;;230.90;2252.80;;;;;;5033527;28;20075;-85
2022/09/25 01:41:22;;;;;;;32.53;18.75;;;231.00;2252.80;;;;;;5035387;28;20490;-84
2022/09/25 01:44:17;;;;;;;30.58;18.48;;;231.00;2252.80;;;;;;5033880;28;20050;-85
2022/09/25 01:46:47;;;;;;;31.00;19.10;;;231.00;2252.80;;;;;;5034239;28;20471;-83
2022/09/25 01:49:36;;;;;;;34.00;19.33;;;231.10;2252.80;;;;;;5034200;28;20072;-84
2022/09/25 01:52:09;;;;;;;37.80;19.67;;;231.00;2252.80;;;;;;5033440;28;20025;-84
2022/09/25 01:54:52;;;;;;;35.53;21.63;;;231.20;2252.80;;;;;;5034141;28;20025;-83
2022/09/25 01:57:24;;;;;;;31.13;19.00;;;231.20;2252.80;;;;;;5033329;28;20068;-83
2022/09/25 02:00:24;;;;;;;31.20;19.60;;;230.80;2252.80;;;;;;5033943;28;20076;-84
2022/09/25 02:03:07;;;;;;;26.90;18.17;;;230.90;2252.80;;;;;;5031967;28;20124;-83
2022/09/25 02:05:42;;;;;;;;;;;231.00;2252.80;;;;;;5034225;28;20029;-83
2022/09/25 02:08:21;;;;;;;28.08;18.65;;;231.10;2252.80;;;;;;5034372;28;19906;-84
2022/09/25 02:10:54;;;;;;;29.67;18.02;;;231.00;2252.80;;;;;;5014469;28;20049;-83
2022/09/25 02:13:22;;;;;;;;;;;230.90;2252.80;;;;;;5029465;28;20383;-82
2022/09/25 02:15:59;;;;;;;24.98;16.77;;;230.90;2252.80;;;;;;5013623;28;19912;-84
2022/09/25 02:21:14;;;;;;;24.85;15.45;;;230.60;2252.80;;;;;;5014786;28;20033;-84
2022/09/25 02:24:03;;;;;;;22.27;15.45;;;230.80;2252.80;;;;;;5011721;28;20030;-83
2022/09/25 02:26:31;;;;;;;28.60;18.10;;;230.90;2252.80;;;;;;5049658;28;21243;-84
2022/09/25 02:28:58;;;;;;;25.73;16.67;;;231.00;2252.80;;;;;;5052995;28;20036;-84
2022/09/25 02:31:39;;;;;;;24.95;15.80;;;231.00;2252.80;;;;;;5053722;28;20096;-85
2022/09/25 02:34:05;;;;;;;27.60;16.98;;;231.00;2252.80;;;;;;5034785;28;20037;-83
2022/09/25 02:36:32;;;;;;;30.67;18.40;;;230.80;2252.80;;;;;;5032980;28;20057;-85
2022/09/25 02:39:00;;;;;;;26.60;16.67;;;230.90;2252.80;;;;;;5032658;28;20029;-83
2022/09/25 02:41:47;;;;;;;31.10;17.65;;;230.90;2252.80;;;;;;5032981;28;20021;-85
2022/09/25 02:44:56;;;;;;;29.02;16.95;;;230.90;2252.80;;;;;;5033396;28;20051;-86
2022/09/25 02:47:42;;;;;;;26.77;16.85;;;230.90;2252.80;;;;;;5010777;28;20045;-84
2022/09/25 02:50:32;;;;;;;26.80;16.98;;;230.80;2252.80;;;;;;5033439;28;20029;-84
2022/09/25 02:53:12;;;;;;;29.42;17.83;;;230.90;2252.80;;;;;;5033118;28;20034;-85
2022/09/25 02:55:44;;;;;;;28.25;19.80;;;231.10;2252.80;;;;;;5033064;28;20036;-85
2022/09/25 02:58:25;;;;;;;31.00;19.27;;;230.90;2252.80;;;;;;5032748;28;20116;-83
2022/09/25 03:00:54;;;;;;;28.67;18.13;;;231.00;2252.80;;;;;;5033416;28;20025;-82
2022/09/25 03:03:22;;;;;;;31.33;17.35;;;231.00;2252.80;;;;;;5032742;28;20124;-85
2022/09/25 03:05:50;;;;;;;22.77;15.98;;;231.00;2252.80;;;;;;5032715;28;20037;-84
2022/09/25 03:11:02;;;;;;;22.60;15.40;;;231.00;2252.80;;;;;;5034016;28;20386;-84
2022/09/25 03:13:32;;;;;;;17.50;13.65;;;231.10;2252.80;;;;;;5033613;28;20033;-84
2022/09/25 03:16:05;;;;;;;22.75;13.57;;;231.10;2252.80;;;;;;5032399;28;20037;-83
2022/09/25 03:18:31;;;;;;;19.25;14.25;;;231.10;2252.80;;;;;;5032847;28;20029;-84
2022/09/25 03:20:57;;;;;;;21.15;13.75;;;231.00;2252.80;;;;;;5032679;28;20043;-85
2022/09/25 03:23:24;;;;;;;21.35;14.02;;;230.70;2252.80;;;;;;5031551;28;20180;-84
2022/09/25 03:25:53;;;;;;;21.08;13.68;;;230.70;2252.80;;;;;;5033855;28;20033;-82
2022/09/25 03:28:19;;;;;;;19.02;14.52;;;230.80;2252.80;;;;;;5032191;28;20025;-85
2022/09/25 03:31:02;;;;;;;18.98;14.15;;;230.90;2252.80;;;;;;5032470;28;20028;-85
2022/09/25 03:33:33;;;;;;;20.33;14.15;;;230.90;2252.80;;;;;;5032599;28;20387;-85
2022/09/25 03:36:05;;;;;;;20.83;13.77;;;231.00;2252.80;;;;;;5032261;28;20026;-84
2022/09/25 03:38:31;;;;;;;18.95;12.85;;;230.90;2252.80;;;;;;5032400;28;20061;-84
2022/09/25 03:40:57;;;;;;;20.60;14.27;;;231.10;2252.80;;;;;;5032418;28;20037;-84
2022/09/25 03:43:23;;;;;;;23.35;14.30;;;231.10;2252.80;;;;;;5031845;28;20049;-83
2022/09/25 03:45:49;;;;;;;21.05;13.93;;;231.20;2252.80;;;;;;5032478;28;20026;-83
2022/09/25 03:48:14;;;;;;;22.73;14.18;;;231.30;2252.80;;;;;;5032957;28;20475;-84
2022/09/25 03:50:40;;;;;;;24.02;15.02;;;231.00;2252.80;;;;;;5032265;28;20037;-84
2022/09/25 03:53:07;;;;;;;23.67;15.93;;;231.00;2252.80;;;;;;5032319;28;20037;-82
2022/09/25 03:55:32;;;;;;;25.08;15.15;;;230.70;2252.80;;;;;;5031709;28;20033;-83
2022/09/25 03:57:58;;;;;;;21.10;15.30;;;230.70;2252.80;;;;;;5032324;28;20384;-84
2022/09/25 04:00:24;;;;;;;26.98;17.52;;;230.70;2252.80;;;;;;5033474;28;20494;-83
2022/09/25 04:02:50;;;;;;;31.17;17.23;;;230.70;2252.80;;;;;;5031735;28;20036;-84
2022/09/25 04:05:17;;;;;;;25.73;17.27;;;230.90;2252.80;;;;;;5030898;28;20034;-82
2022/09/25 04:07:43;;;;;;;21.85;15.50;;;230.90;2252.80;;;;;;5031326;28;20030;-83
2022/09/25 04:10:09;;;;;;;23.23;16.02;;;230.90;2252.80;;;;;;5031393;28;20029;-81
2022/09/25 04:12:35;;;;;;;21.35;15.68;;;231.00;2252.80;;;;;;5030828;28;20029;-83
2022/09/25 04:15:01;;;;;;;22.65;15.50;;;231.00;2252.80;;;;;;5031995;28;20116;-82
2022/09/25 04:17:28;;;;;;;25.00;16.50;;;231.10;2252.80;;;;;;5031658;28;20369;-81
2022/09/25 04:19:54;;;;;;;23.00;17.05;;;230.70;2252.80;;;;;;5032059;28;20115;-84
2022/09/25 04:22:20;;;;;;;21.55;13.70;;;230.70;2252.80;;;;;;5032023;28;20037;-84
2022/09/25 04:24:48;;;;;;;19.67;13.50;;;230.60;2252.80;;;;;;5031743;28;20026;-82
2022/09/25 04:27:22;;;;;;;24.15;14.77;;;230.70;2252.80;;;;;;5035272;28;20037;-81
2022/09/25 04:29:48;;;;;;;21.83;15.05;;;230.70;2252.80;;;;;;5035707;28;20418;-83
2022/09/25 04:34:59;;;;;;;25.33;16.15;;;230.80;2252.80;;;;;;5036929;28;20183;-84
2022/09/25 04:37:25;;;;;;;22.20;16.35;;;230.40;2252.80;;;;;;5036745;28;20069;-84
2022/09/25 04:39:53;;;;;;;25.05;16.48;;;230.60;2252.80;;;;;;5034643;28;20425;-85
2022/09/25 04:42:23;;;;;;;27.85;15.25;;;230.50;2252.80;;;;;;5036632;28;20493;-84
2022/09/25 04:44:58;;;;;;;24.98;15.68;;;230.70;2252.80;;;;;;5038487;28;20025;-84
2022/09/25 04:47:27;;;;;;;24.60;16.42;;;230.50;2252.80;;;;;;5037741;28;20418;-82
2022/09/25 04:49:53;;;;;;;27.48;17.30;;;230.50;2252.80;;;;;;5037893;28;20025;-83
2022/09/25 04:52:19;;;;;;;25.40;18.52;;;230.40;2252.80;;;;;;5038320;28;20052;-86
2022/09/25 04:54:46;;;;;;;21.50;15.15;;;205.70;2252.80;;;;;;5055757;28;20025;-82
2022/09/25 04:57:21;;;;;;;27.38;15.93;;;230.40;2252.80;;;;;;5056009;28;20021;-84
2022/09/25 04:59:47;;;;;;;24.35;15.52;;;230.40;2252.80;;;;;;5037817;28;20040;-82
2022/09/25 05:02:14;;;;;;;20.48;13.93;;;205.70;2252.80;;;;;;5037716;28;20029;-83
2022/09/25 05:04:39;;;;;;;27.20;16.10;;;205.70;2252.80;;;;;;5037878;28;20056;-84
2022/09/25 05:07:05;;;;;;;22.88;15.32;;;230.40;2252.80;;;;;;5037876;28;20451;-82
2022/09/25 05:09:31;;;;;;;22.13;15.02;;;230.50;2252.80;;;;;;5038186;28;20028;-80
2022/09/25 05:11:58;;;;;;;25.95;16.50;;;230.50;2252.80;;;;;;5038138;28;20033;-82
2022/09/25 05:14:24;;;;;;;25.15;14.95;;;205.70;2252.80;;;;;;5037763;28;20029;-84
2022/09/25 05:16:51;;;;;;;25.58;15.90;;;230.50;2252.80;;;;;;5055668;28;20029;-83
2022/09/25 05:19:17;;;;;;;23.50;15.48;;;230.60;2252.80;;;;;;5037931;28;20116;-83
2022/09/25 05:21:43;;;;;;;26.00;15.57;;;230.50;2252.80;;;;;;5037584;28;20033;-84
2022/09/25 05:24:10;;;;;;;25.25;17.00;;;230.90;2252.80;;;;;;5037041;28;20386;-85
2022/09/25 05:26:36;;;;;;;24.67;16.80;;;230.80;2252.80;;;;;;5037922;28;20025;-83
2022/09/25 05:29:03;;;;;;;32.60;22.75;;;230.90;2252.80;;;;;;5036645;28;20040;-82
2022/09/25 05:31:30;;;;;;;31.40;21.38;;;230.80;2252.80;;;;;;5054797;28;20051;-83
2022/09/25 05:33:57;;;;;;;36.28;22.67;;;230.90;2252.80;;;;;;5036659;28;20082;-85
2022/09/25 05:36:23;;;;;;;35.47;21.67;;;230.90;2252.80;;;;;;5036200;28;20029;-85
2022/09/25 05:38:49;;;;;;;32.05;21.40;;;230.90;2252.80;;;;;;5035304;28;20083;-83
2022/09/25 05:41:14;;;;;;;30.63;20.08;;;230.90;2252.80;;;;;;5053670;28;20025;-83
2022/09/25 05:43:43;;;;;;;27.05;19.67;;;230.90;2252.80;;;;;;5037400;28;20056;-84
2022/09/25 05:46:09;;;;;;;31.33;20.25;;;230.90;2252.80;;;;;;5037675;28;20123;-83
2022/09/25 05:48:36;;;;;;;32.58;20.00;;;230.80;2252.80;;;;;;5055654;28;20036;-83
2022/09/25 05:51:01;;;;;;;25.77;19.13;;;230.80;2252.80;;;;;;5055634;28;20447;-84
2022/09/25 05:53:29;;;;;;;29.42;18.80;;;230.90;2252.80;;;;;;5037660;28;20093;-85
2022/09/25 05:55:57;;;;;;;27.27;18.05;;;230.90;2252.80;;;;;;5036986;28;20032;-86
2022/09/25 05:58:24;;;;;;;26.40;18.95;;;230.90;2252.80;;;;;;5037416;28;20036;-84
2022/09/25 06:00:50;;;;;;;28.23;18.77;;;231.10;2252.80;;;;;;5037569;28;20463;-84
2022/09/25 06:03:16;;;;;;;34.90;20.85;;;231.30;2252.80;;;;;;5036740;28;20079;-86
2022/09/25 06:05:45;;;;;;;28.13;20.05;;;231.20;2252.80;;;;;;5037257;28;20455;-84
2022/09/25 06:08:12;;;;;;;31.67;19.35;;;231.20;2252.80;;;;;;5037246;28;20025;-85
2022/09/25 06:10:41;;;;;;;30.67;19.27;;;256.00;2252.80;;;;;;5054614;28;20024;-84
2022/09/25 06:13:07;;;;;;;30.63;18.48;;;231.20;2252.80;;;;;;5037417;28;20039;-85
2022/09/25 06:15:39;;;;;;;29.02;18.33;;;256.10;2252.80;;;;;;5037114;28;20025;-83
2022/09/25 06:18:06;;;;;;;28.42;18.17;;;256.40;2252.80;;;;;;5036949;28;20025;-84
2022/09/25 06:20:32;;;;;;;33.22;20.48;;;256.60;2252.80;;;;;;5037103;28;20492;-84
2022/09/25 06:22:59;;;;;;;37.25;22.70;;;256.70;2252.80;;;;;;5036853;28;20036;-82
2022/09/25 06:25:28;;;;;;;29.65;20.08;;;256.90;2252.80;;;;;;5036399;28;20032;-84
2022/09/25 06:27:55;;;;;;;30.33;21.25;;;256.90;2252.80;;;;;;5036456;28;20028;-83
2022/09/25 06:30:22;;;;;;;30.55;19.75;;;281.60;2278.40;;;;;;5035758;28;20040;-84
2022/09/25 06:32:49;;;;;;;26.77;18.67;;;256.90;2252.80;;;;;;5036283;28;20067;-85
2022/09/25 06:35:15;;;;;;;33.70;20.15;;;281.70;2278.40;;;;;;5036517;28;20036;-84
2022/09/25 06:37:41;;;;;;;33.50;22.02;;;281.60;2278.40;;;;;;5036650;28;20029;-84
2022/09/25 06:40:08;;;;;;;31.45;20.52;;;281.80;2278.40;;;;;;5054910;28;20029;-83
2022/09/25 06:42:34;;;;;;;30.05;22.42;;;281.70;2278.40;;;;;;5036385;28;20135;-85
2022/09/25 06:45:00;;;;;;;36.33;25.05;;;282.00;2278.40;;;;;;5054070;28;20078;-82
2022/09/25 06:47:26;;;;;;;31.20;22.05;;;282.00;2278.40;;;;;;5036275;28;20060;-83
2022/09/25 06:49:52;;;;;;;33.03;22.40;;;282.00;2278.40;;;;;;5034921;28;20060;-85
2022/09/25 06:52:19;;;;;;;33.53;21.50;;;282.10;2278.40;;;;;;5036053;28;20124;-84
2022/09/25 06:54:45;;;;;;;27.40;19.95;;;282.30;2278.40;;;;;;5036341;28;20025;-85
2022/09/25 06:57:11;;;;;;;25.98;17.95;;;282.30;2278.40;;;;;;5036404;28;20112;-83
2022/09/25 06:59:37;;;;;;;24.60;17.92;;;282.50;2278.40;;;;;;5036036;28;20059;-83
2022/09/25 07:04:50;;;;;;;29.63;19.95;;;307.40;2304.00;;;;;;5054091;28;20039;-83
2022/09/25 07:07:19;;;;;;;29.75;19.10;;;307.60;2304.00;;;;;;5036769;28;20028;-84
2022/09/25 07:09:48;;;;;;;28.17;18.58;;;307.90;2304.00;;;;;;5054733;28;20410;-80
2022/09/25 07:12:17;;;;;;;24.00;18.05;;;307.90;2304.00;;;;;;5054129;28;20050;-83
2022/09/25 07:14:45;;;;;;;28.33;17.88;;;308.10;2304.00;;;;;;5055348;28;20537;-84
2022/09/25 07:17:12;;;;;;;28.88;19.55;;;332.90;2329.60;;;;;;5055579;28;20024;-83
2022/09/25 07:19:38;;;;;;;28.25;18.88;;;333.20;2329.60;;;;;;5055759;28;20025;-83
2022/09/25 07:22:03;;;;;;;25.70;17.98;;;333.30;2329.60;;;;;;5055870;28;20105;-82
2022/09/25 07:24:30;;;;;;;26.20;17.20;;;333.40;2329.60;;;;;;5055970;28;20032;-81
2022/09/25 07:26:55;;;;;;;25.20;17.58;;;333.50;2329.60;;;;;;5055412;28;20032;-82
2022/09/25 07:29:21;;;;;;;31.98;19.80;;;333.70;2329.60;;;;;;5055563;28;20025;-82
2022/09/25 07:31:47;;;;;;;26.73;21.13;;;333.70;2329.60;;;;;;5073469;28;20056;-82
2022/09/25 07:34:14;;;;;;;31.42;22.42;;;358.60;2329.60;;;;;;5055731;28;20381;-83
2022/09/25 07:36:42;;;;;;;30.35;21.40;;;358.80;2329.60;;;;;;5056013;28;20108;-82
2022/09/25 07:39:08;;;;;;;27.13;19.40;;;359.00;2329.60;;;;;;5055970;28;20024;-83
2022/09/25 07:41:36;;;;;;;20.27;15.75;;;359.20;2329.60;;;;;;5055500;28;20060;-81
2022/09/25 07:44:02;;;;;;;24.75;13.63;;;359.30;2329.60;;;;;;5052286;28;20566;-81
2022/09/25 07:46:30;;;;;;;22.00;12.85;;;384.10;2329.60;;;;;;5051636;28;20025;-80
2022/09/25 07:48:56;;;;;;;14.93;10.07;;;384.30;2329.60;;;;;;5052062;28;20047;-82
2022/09/25 07:51:23;;;;;;;16.83;11.98;;;384.40;2329.60;;;;;;5052116;28;20459;-81
2022/09/25 07:53:49;;;;;;;18.77;13.20;;;384.50;2329.60;;;;;;5052017;28;20386;-81
2022/09/25 07:56:15;;;;;;;17.83;13.93;;;384.60;2329.60;;;;;;5051790;28;20029;-82
2022/09/25 07:58:41;;;;;;;23.38;15.32;;;384.80;2329.60;;;;;;5051654;28;20112;-84
2022/09/25 08:01:11;;;;;;;22.08;16.98;;;384.90;2329.60;;;;;;5053293;28;20055;-83
2022/09/25 08:03:36;;;;;;;24.15;15.30;;;409.60;2355.20;;;;;;5056662;28;20390;-84
2022/09/25 08:06:12;;;;;;;22.55;14.65;;;409.70;2355.20;;;;;;5055975;28;20171;-83
2022/09/25 08:08:39;;;;;;;23.63;17.60;;;410.00;2355.20;;;;;;5055775;28;20052;-83
2022/09/25 08:11:10;;;;;;;33.35;27.95;;;410.20;2355.20;;;;;;5055409;28;20028;-84
2022/09/25 08:13:37;;;;;;;28.17;19.70;;;410.30;2355.20;;;;;;5055984;28;20025;-82
2022/09/25 08:16:10;;;;;;;20.27;16.35;;;410.50;2355.20;;;;;;5055420;28;20025;-82
2022/09/25 08:18:37;;;;;;;22.70;17.83;;;435.20;2355.20;;;;;;5056013;28;20040;-84
2022/09/25 08:21:04;;;;;;;14.38;11.30;;;435.30;2355.20;;;;;;5055213;28;20025;-83
2022/09/25 08:23:30;;;;;;;19.35;13.02;;;435.50;2355.20;;;;;;5055377;28;20065;-83
2022/09/25 08:25:57;;;;;;;19.50;12.82;;;435.60;2355.20;;;;;;5055251;28;20028;-83
2022/09/25 08:28:23;;;;;;;19.73;15.80;;;435.80;2355.20;;;;;;5055685;28;20532;-83
2022/09/25 08:30:49;;;;;;;16.33;10.85;;;435.80;2355.20;;;;;;5055460;28;20025;-82
2022/09/25 08:33:15;;;;;;;13.25;10.82;;;435.80;2355.20;;;;;;5056889;28;20386;-82
2022/09/25 08:35:42;;;;;;;16.73;10.48;;;435.90;2355.20;;;;;;5042882;28;20030;-83
2022/09/25 08:38:08;;;;;;;12.50;9.25;;;436.00;2355.20;;;;;;5034687;28;20463;-82
2022/09/25 08:40:41;;;;;;;18.45;14.98;;;436.10;2355.20;;;;;;5034418;28;20124;-84
2022/09/25 08:43:12;;;;;;;12.82;9.20;;;460.80;2380.80;;;;;;5043955;28;20052;-83
2022/09/25 08:51:17;;;;;;;18.65;13.20;;;461.00;2380.80;;;;;;5035966;28;20140;-82
2022/09/25 08:53:44;;;;;;;12.10;9.23;;;461.10;2380.80;;;;;;5038921;28;20029;-83
2022/09/25 08:56:19;;;;;;;14.32;7.93;;;461.30;2380.80;;;;;;5037300;28;20021;-79
2022/09/25 08:59:01;;;;;;;9.48;5.30;;;461.60;2380.80;;;;;;5037368;28;20111;-81
2022/09/25 09:01:39;;;;;;;11.23;6.18;;;461.50;2278.40;;;;;;5036903;28;20479;-82
2022/09/25 09:04:31;;;;;;;7.60;3.90;;;486.50;2278.40;;;;;;5056490;28;20025;-82
2022/09/25 09:07:22;;;;;;;5.70;3.80;;;486.70;2150.40;;;;;;5063388;28;20028;-80
2022/09/25 09:10:03;;;;;;;9.05;5.10;;;486.80;2124.80;;;;;;5077238;28;20033;-80
2022/09/25 09:12:50;;;;;;;9.35;5.47;;;487.10;2124.80;;;;;;5060437;28;20032;-80
2022/09/25 09:15:35;;;;;;;6.40;3.67;;;487.30;2048.00;;;;;;5055504;28;20021;-78
2022/09/25 09:18:16;;;;;;;13.55;4.70;;;512.30;1996.80;;;;;;5070871;28;20459;-78
2022/09/25 09:20:50;;;;;;;8.77;3.47;;;512.50;1945.60;;;;;;5071013;28;20064;-76
2022/09/25 09:23:19;;;;;;;8.60;3.63;;;512.60;1894.40;;;;;;5053596;28;20029;-77
2022/09/25 09:25:58;;;;;;;9.52;2.88;;;512.60;1920.00;;;;;;5069242;28;20029;-77
2022/09/25 09:28:33;;;;;;;8.13;2.83;;;512.90;1868.80;;;;;;5057508;28;20021;-78
2022/09/25 09:31:11;;;;;;;10.20;3.20;;;512.80;1868.80;;;;;;5074426;28;20020;-77
2022/09/25 09:33:43;;;;;;;6.05;3.63;;;512.70;1843.20;;;;;;5057413;28;20039;-77
2022/09/25 09:36:24;;;;;;;5.40;2.67;;;512.90;1843.20;;;;;;5075252;28;20029;-78
2022/09/25 09:39:00;;;;;;;6.55;3.50;;;512.90;1817.60;;;;;;5057369;28;20024;-77
2022/09/25 09:41:49;;;;;;;6.53;3.53;;;537.60;1868.80;;;;;;5056894;28;20505;-77
2022/09/25 09:44:38;;;;;;;6.45;4.15;;;537.90;1868.80;;;;;;5047620;28;20068;-77
2022/09/25 09:47:21;;;;;;;6.72;3.78;;;538.00;1843.20;;;;;;5040899;28;20033;-78
2022/09/25 09:50:15;;;;;;;11.20;5.68;;;538.00;1843.20;;;;;;5032354;28;20034;-78
2022/09/25 09:52:42;;;;;;;13.50;9.65;;;538.10;1817.60;;;;;;5038015;28;20044;-79
2022/09/25 09:55:25;;;;;;;7.40;4.07;;;538.20;1817.60;;;;;;5031315;28;20029;-78
2022/09/25 09:57:58;;;;;;;12.02;3.75;;;538.30;1894.40;;;;;;5053288;28;20370;-80
2022/09/25 10:00:24;;;;;;;12.60;4.75;;;538.50;1817.60;;;;;;5050356;28;20024;-79
2022/09/25 10:02:59;;;;;;;8.95;3.90;;;538.40;1817.60;;;;;;5033110;28;20029;-77
2022/09/25 10:05:47;;;;;;;7.75;4.00;;;538.50;1817.60;;;;;;5035792;28;20060;-85
2022/09/25 10:08:12;;;;;;;6.28;3.42;;;563.20;1868.80;;;;;;5036436;28;20020;-85
2022/09/25 10:10:42;;;;;;;6.10;3.75;;;563.30;1843.20;;;;;;5037409;28;20029;-85
2022/09/25 10:13:18;;;;;;;7.80;3.75;;;563.50;1843.20;;;;;;5053684;28;20050;-84
2022/09/25 10:15:51;;;;;;;8.23;3.17;;;563.50;1817.60;;;;;;5037431;28;20025;-86
2022/09/25 10:18:20;;;;;;;6.95;4.70;;;563.70;1843.20;;;;;;5054098;28;20029;-85
2022/09/25 10:20:52;;;;;;;8.57;3.72;;;563.80;1817.60;;;;;;5037545;28;20060;-85
2022/09/25 10:23:45;;;;;;;5.50;3.30;;;563.90;1792.00;;;;;;5036630;28;20123;-87
2022/09/25 10:26:24;;;;;;;4.38;2.90;;;563.80;1817.60;;;;;;5053333;28;20390;-81
2022/09/25 10:28:50;;;;;;;12.05;5.32;;;563.90;1792.00;;;;;;5036563;28;20071;-79
2022/09/25 10:31:18;;;;;;;6.13;4.05;;;564.10;1792.00;;;;;;5036136;28;20025;-83
2022/09/25 10:34:16;;;;;;;8.82;4.57;;;564.10;1740.80;;;;;;5036354;28;20029;-86
2022/09/25 10:36:48;;;;;;;8.77;4.40;;;588.90;1740.80;;;;;;5037806;28;20021;-84
2022/09/25 10:39:28;;;;;;;10.43;4.65;;;588.90;1740.80;;;;;;5037064;28;20037;-86
2022/09/25 10:41:57;;;;;;;5.22;3.50;;;589.00;1740.80;;;;;;5039719;28;20036;-85
2022/09/25 10:44:33;;;;;;;7.13;4.43;;;589.20;1715.20;;;;;;5039792;28;20065;-83
2022/09/25 10:50:25;;;;;;;5.68;3.30;;;589.40;1715.20;;;;;;5057369;28;20067;-85
2022/09/25 10:53:00;;;;;;;11.25;3.97;;;589.60;1715.20;;;;;;5040607;28;20382;-83
2022/09/25 10:55:29;;;;;;;11.95;6.05;;;589.70;1715.20;;;;;;5038504;28;20025;-83
2022/09/25 10:58:10;;;;;;;13.68;7.05;;;614.40;1715.20;;;;;;5039227;28;20116;-86
2022/09/25 11:00:52;;;;;;;6.72;3.65;;;614.60;1740.80;;;;;;5054372;28;20029;-87
2022/09/25 11:03:34;;;;;;;8.45;4.15;;;614.60;1689.60;;;;;;5037788;28;20025;-86
2022/09/25 11:06:28;;;;;;;6.07;3.38;;;614.80;1715.20;;;;;;5036309;28;20052;-87
2022/09/25 11:09:12;;;;;;;8.40;3.92;;;614.90;1715.20;;;;;;5031608;28;20504;-87
2022/09/25 11:11:39;;;;;;;5.82;3.97;;;614.90;1664.00;;;;;;5036678;28;20102;-88
2022/09/25 11:14:18;;;;;;;7.05;3.85;;;615.20;1664.00;;;;;;5036344;28;20021;-86
2022/09/25 11:16:56;;;;;;;7.88;4.63;;;615.30;1638.40;;;;;;5036625;28;20057;-86
2022/09/25 11:19:29;;;;;;;7.97;5.45;;;640.00;1638.40;;;;;;5036135;28;20029;-84
2022/09/25 11:22:34;;;;;;;5.15;3.08;;;640.10;1612.80;;;;;;5053430;28;20032;-86
2022/09/25 11:25:37;;;;;;;5.85;3.78;;;640.20;1587.20;;;;;;5035574;28;20033;-85
2022/09/25 11:28:11;;;;;;;21.92;6.30;;;640.50;1612.80;;;;;;5014805;28;20490;-83
2022/09/25 11:31:17;;;;;;;5.55;3.30;;;640.60;1612.80;;;;;;5052310;28;20036;-85
2022/09/25 11:34:13;;;;;;;7.20;3.80;;;640.90;1587.20;;;;;;5052416;28;20029;-84
2022/09/25 11:37:10;;;;;;;11.55;4.30;;;640.70;1587.20;;;;;;5056476;28;20048;-86
2022/09/25 11:42:35;;;;;;;;;;;665.60;1587.20;;;;;;5057485;28;20124;-86
2022/09/25 11:45:09;;;;;;;8.88;4.55;;;665.60;1612.80;;;;;;5040226;28;20321;-87
2022/09/25 11:47:39;;;;;;;8.57;3.83;;;640.90;1561.60;;;;;;5073171;28;20086;-86
2022/09/25 11:50:14;;;;;;;6.18;4.00;;;640.90;1561.60;;;;;;5056152;28;20479;-84
2022/09/25 11:53:05;;;;;;;9.98;3.85;;;640.80;1587.20;;;;;;5039458;28;20025;-84
2022/09/25 11:55:38;;;;;;;6.07;2.90;;;665.60;1587.20;;;;;;5055753;28;20017;-84
2022/09/25 11:58:27;;;;;;;11.15;5.30;;;640.80;1587.20;;;;;;5056172;28;20492;-84
2022/09/25 12:01:06;;;;;;;8.57;4.57;;;665.80;1587.20;;;;;;5057507;28;20060;-83
2022/09/25 12:03:56;;;;;;;10.57;3.22;;;665.70;1612.80;;;;;;5055665;28;20024;-81
2022/09/25 12:06:34;;;;;;;9.25;3.25;;;665.60;1587.20;;;;;;5055852;28;20040;-82
2022/09/25 12:09:09;;;;;;;9.50;3.50;;;666.00;1587.20;;;;;;5055734;28;20032;-82
2022/09/25 12:11:50;;;;;;;9.45;4.75;;;666.10;1561.60;;;;;;5055828;28;20116;-81
2022/09/25 12:14:34;;;;;;;9.32;3.92;;;666.30;1561.60;;;;;;5057171;28;20048;-85
2022/09/25 12:17:06;;;;;;;8.32;4.05;;;691.20;1536.00;;;;;;5055450;28;20025;-82
2022/09/25 12:19:34;;;;;;;7.28;3.83;;;666.50;1561.60;;;;;;5056815;28;20020;-83
2022/09/25 12:22:19;;;;;;;8.32;4.10;;;691.20;1561.60;;;;;;5045914;28;20034;-82
2022/09/25 12:25:11;;;;;;;6.05;3.80;;;691.50;1536.00;;;;;;5020055;28;20071;-82
2022/09/25 12:27:57;;;;;;;7.40;5.07;;;691.60;1536.00;;;;;;5023694;28;20037;-79
2022/09/25 12:30:33;;;;;;;8.30;4.38;;;691.90;1536.00;;;;;;5036250;28;20028;-81
2022/09/25 12:33:08;;;;;;;8.73;5.68;;;691.90;1536.00;;;;;;5037772;28;20355;-79
2022/09/25 12:35:37;;;;;;;8.60;5.50;;;691.80;1536.00;;;;;;5071096;28;20025;-79
2022/09/25 12:38:10;;;;;;;8.15;4.28;;;691.90;1536.00;;;;;;5070818;28;20417;-79
2022/09/25 12:40:42;;;;;;;7.90;4.40;;;692.10;1536.00;;;;;;5037691;28;20041;-80
2022/09/25 12:43:33;;;;;;;8.80;4.38;;;691.90;1561.60;;;;;;5037256;28;20398;-81
2022/09/25 12:46:15;;;;;;;10.77;5.43;;;692.00;1536.00;;;;;;5069909;28;20374;-81
2022/09/25 12:48:44;;;;;;;11.07;4.20;;;691.90;1536.00;;;;;;5037559;28;20430;-80
2022/09/25 12:51:42;;;;;;;9.55;4.45;;;692.10;1536.00;;;;;;5037134;28;20036;-82
2022/09/25 12:54:14;;;;;;;6.57;3.75;;;716.90;1561.60;;;;;;5037689;28;20036;-82
2022/09/25 12:56:54;;;;;;;;;;;717.40;1536.00;;;;;;5037815;28;20028;-79